createdAt,value
2019-04-12T00:01:14.617Z,102664.61
2019-04-12T00:03:48.403Z,102656.80
2019-04-12T00:06:22.206Z,102662.58
2019-04-12T00:08:56.203Z,102663.73
2019-04-12T00:11:30.138Z,102664.28
2019-04-12T00:14:04.182Z,102662.64
2019-04-12T00:16:38.022Z,102665.48
2019-04-12T00:19:13.912Z,102668.56
2019-04-12T00:21:48.109Z,102664.75
2019-04-12T00:24:22.010Z,102670.66
2019-04-12T00:26:55.894Z,102661.26
2019-04-12T00:29:29.663Z,102662.59
2019-04-12T00:32:03.572Z,102663.94
2019-04-12T00:34:37.308Z,102662.74
2019-04-12T00:37:11.164Z,102662.64
2019-04-12T00:39:44.872Z,102668.62
2019-04-12T00:42:18.669Z,102665.88
2019-04-12T00:44:52.832Z,102666.55
2019-04-12T00:47:27.361Z,102664.34
2019-04-12T00:50:01.338Z,102666.23
2019-04-12T00:52:35.217Z,102663.28
2019-04-12T00:55:09.204Z,102670.78
2019-04-12T00:57:46.148Z,102667.37
2019-04-12T01:00:18.814Z,102668.58
2019-04-12T01:02:57.104Z,102669.38
2019-04-12T01:05:32.584Z,102669.52
2019-04-12T01:08:07.273Z,102667.92
2019-04-12T01:10:41.703Z,102670.61
2019-04-12T01:13:15.578Z,102670.05
2019-04-12T01:15:49.817Z,102675.28
2019-04-12T01:18:23.822Z,102672.02
2019-04-12T01:20:58.101Z,102671.08
2019-04-12T01:23:33.454Z,102669.05
2019-04-12T01:26:13.014Z,102668.97
2019-04-12T01:28:48.410Z,102670.61
2019-04-12T01:31:22.233Z,102665.88
2019-04-12T01:33:56.073Z,102665.36
2019-04-12T01:36:29.814Z,102666.30
2019-04-12T01:39:04.739Z,102660.53
2019-04-12T01:41:38.626Z,102667.52
2019-04-12T01:44:12.551Z,102657.52
2019-04-12T01:46:46.358Z,102663.29
2019-04-12T01:49:20.478Z,102651.42
2019-04-12T01:51:54.246Z,102661.80
2019-04-12T01:54:28.144Z,102659.33
2019-04-12T01:57:01.985Z,102664.30
2019-04-12T01:59:36.003Z,102662.95
2019-04-12T02:02:09.880Z,102660.60
2019-04-12T02:04:44.098Z,102659.47
2019-04-12T02:07:17.952Z,102657.33
2019-04-12T02:09:51.828Z,102648.34
2019-04-12T02:12:25.772Z,102650.52
2019-04-12T02:14:59.616Z,102651.67
2019-04-12T02:17:33.383Z,102650.03
2019-04-12T02:20:08.816Z,102658.28
2019-04-12T02:22:42.592Z,102658.78
2019-04-12T02:25:21.483Z,102652.08
2019-04-12T02:27:52.221Z,102649.12
2019-04-12T02:30:29.712Z,102650.87
2019-04-12T02:33:03.736Z,102654.55
2019-04-12T02:35:42.626Z,102651.06
2019-04-12T02:38:16.894Z,102649.79
2019-04-12T02:40:52.480Z,102644.97
2019-04-12T02:43:28.296Z,102644.56
2019-04-12T02:46:05.924Z,102651.88
2019-04-12T02:48:51.568Z,102655.30
2019-04-12T02:51:42.435Z,102654.77
2019-04-12T02:54:35.909Z,102648.45
2019-04-12T02:57:28.628Z,102651.06
2019-04-12T03:00:05.402Z,102646.64
2019-04-12T03:02:40.221Z,102641.62
2019-04-12T03:05:14.528Z,102642.89
2019-04-12T03:07:48.899Z,102638.41
2019-04-12T03:10:23.182Z,102641.02
2019-04-12T03:12:58.821Z,102639.67
2019-04-12T03:15:35.671Z,102647.12
2019-04-12T03:18:09.640Z,102641.75
2019-04-12T03:20:43.863Z,102641.29
2019-04-12T03:23:17.867Z,102656.50
2019-04-12T03:25:56.202Z,102643.22
2019-04-12T03:28:29.350Z,102649.20
2019-04-12T03:31:03.883Z,102653.94
2019-04-12T03:33:38.389Z,102648.72
2019-04-12T03:36:12.612Z,102654.48
2019-04-12T03:38:46.715Z,102651.61
2019-04-12T03:41:20.922Z,102656.09
2019-04-12T03:43:55.390Z,102648.92
2019-04-12T03:46:29.984Z,102647.52
2019-04-12T03:49:04.526Z,102652.14
2019-04-12T03:51:38.595Z,102657.91
2019-04-12T03:54:12.960Z,102656.03
2019-04-12T03:56:47.401Z,102656.84
2019-04-12T03:59:23.258Z,102659.05
2019-04-12T04:02:00.424Z,102662.00
2019-04-12T04:04:34.510Z,102662.12
2019-04-12T04:07:08.736Z,102653.68
2019-04-12T04:09:42.944Z,102655.38
2019-04-12T04:12:17.607Z,102649.14
2019-04-12T04:14:52.000Z,102654.69
2019-04-12T04:17:45.449Z,102658.37
2019-04-12T04:20:37.335Z,102653.81
2019-04-12T04:23:27.122Z,102654.17
2019-04-12T04:26:22.424Z,102655.45
2019-04-12T04:28:53.274Z,102657.19
2019-04-12T04:31:33.275Z,102656.25
2019-04-12T04:34:07.117Z,102651.55
2019-04-12T04:36:42.913Z,102655.14
2019-04-12T04:39:17.288Z,102663.84
2019-04-12T04:41:52.207Z,102656.92
2019-04-12T04:44:26.773Z,102665.76
2019-04-12T04:47:01.047Z,102669.77
2019-04-12T04:49:34.915Z,102670.08
2019-04-12T04:52:09.194Z,102680.03
2019-04-12T04:54:43.353Z,102678.41
2019-04-12T04:57:17.639Z,102679.85
2019-04-12T04:59:51.626Z,102684.91
2019-04-12T05:02:25.684Z,102686.91
2019-04-12T05:04:59.590Z,102690.80
2019-04-12T05:07:33.646Z,102687.72
2019-04-12T05:10:08.402Z,102691.20
2019-04-12T05:12:42.378Z,102696.16
2019-04-12T05:15:17.039Z,102701.31
2019-04-12T05:17:50.985Z,102699.74
2019-04-12T05:20:25.289Z,102692.88
2019-04-12T05:22:59.756Z,102697.77
2019-04-12T05:25:34.122Z,102703.93
2019-04-12T05:28:08.535Z,102702.53
2019-04-12T05:30:42.992Z,102701.48
2019-04-12T05:33:17.089Z,102706.84
2019-04-12T05:35:51.455Z,102709.81
2019-04-12T05:38:25.407Z,102712.34
2019-04-12T05:40:59.720Z,102719.84
2019-04-12T05:43:35.248Z,102723.62
2019-04-12T05:46:21.125Z,102726.59
2019-04-12T05:49:00.735Z,102728.80
2019-04-12T05:51:35.238Z,102730.90
2019-04-12T05:54:10.229Z,102729.34
2019-04-12T05:56:44.078Z,102731.48
2019-04-12T05:59:36.970Z,102730.38
2019-04-12T06:02:31.259Z,102729.32
2019-04-12T06:05:07.147Z,102735.14
2019-04-12T06:07:41.098Z,102729.07
2019-04-12T06:10:15.348Z,102734.46
2019-04-12T06:12:49.518Z,102729.16
2019-04-12T06:15:23.602Z,102731.69
2019-04-12T06:17:58.143Z,102732.77
2019-04-12T06:20:53.771Z,102736.73
2019-04-12T06:23:27.576Z,102736.80
2019-04-12T06:26:26.846Z,102732.64
2019-04-12T06:29:00.612Z,102732.78
2019-04-12T06:31:34.617Z,102735.57
